Time;durP1;ratioP1;P1;durP2;ratioP2;P2;SDS_P1;SDS_P2;PMS_P1;PMS_P2;Temp;Humidity;BMP_temperature;BMP_pressure;BME280_temperature;BME280_humidity;BME280_pressure;Samples;Min_cycle;Max_cycle;Signal;HPM_P1;HPM_P2
2022/04/21 00:00:18;;;;;;;2.88;1.92;;;;;;;;;;8160738;28;20090;-71
2022/04/21 00:04:18;;;;;;;2.67;1.98;;;;;;;;;;8175639;28;20035;-71
2022/04/21 00:08:20;;;;;;;6.00;2.47;;;;;;;;;;8164182;28;20086;-71
2022/04/21 00:12:20;;;;;;;3.22;2.53;;;;;;;;;;8158916;28;20552;-70
2022/04/21 00:16:20;;;;;;;2.50;2.17;;;;;;;;;;8162791;28;20126;-70
2022/04/21 00:20:20;;;;;;;3.95;2.33;;;;;;;;;;8160546;28;20031;-71
2022/04/21 00:24:20;;;;;;;3.38;2.40;;;;;;;;;;8160867;28;20030;-70
2022/04/21 00:28:21;;;;;;;3.67;2.50;;;;;;;;;;8163229;28;20031;-71
2022/04/21 00:32:21;;;;;;;2.30;2.10;;;;;;;;;;8162674;28;20158;-70
2022/04/21 00:36:21;;;;;;;3.03;1.80;;;;;;;;;;8162199;28;20119;-71
2022/04/21 00:40:22;;;;;;;2.55;2.08;;;;;;;;;;8161798;28;20038;-71
2022/04/21 00:44:22;;;;;;;3.42;2.47;;;;;;;;;;8157983;28;20555;-71
2022/04/21 00:48:23;;;;;;;2.67;2.20;;;;;;;;;;8160838;28;20031;-71
2022/04/21 00:52:24;;;;;;;4.30;2.03;;;;;;;;;;8160538;28;20141;-71
2022/04/21 00:56:25;;;;;;;2.13;1.92;;;;;;;;;;8174380;28;20784;-71
2022/04/21 01:00:25;;;;;;;5.55;2.28;;;;;;;;;;8160473;28;20070;-71
2022/04/21 01:04:26;;;;;;;5.53;2.70;;;;;;;;;;8162337;28;21087;-71
2022/04/21 01:08:26;;;;;;;3.78;2.50;;;;;;;;;;8162843;28;21298;-71
2022/04/21 01:12:27;;;;;;;3.13;2.30;;;;;;;;;;8161351;28;20052;-70
2022/04/21 01:16:27;;;;;;;3.65;2.53;;;;;;;;;;8162503;28;20063;-71
2022/04/21 01:20:27;;;;;;;3.55;2.58;;;;;;;;;;8162226;28;20110;-70
2022/04/21 01:24:27;;;;;;;6.93;2.40;;;;;;;;;;8165247;28;20034;-71
2022/04/21 01:28:30;;;;;;;3.83;2.53;;;;;;;;;;8165515;28;21038;-71
2022/04/21 01:32:35;;;;;;;2.88;2.47;;;;;;;;;;8165782;28;20031;-71
2022/04/21 01:41:08;;;;;;;2.97;2.67;;;;;;;;;;8162325;28;20027;-71
2022/04/21 01:41:11;;;;;;;4.43;2.50;;;;;;;;;;8164959;28;20133;-71
2022/04/21 01:45:11;;;;;;;2.35;2.15;;;;;;;;;;8172486;28;20030;-71
2022/04/21 01:49:12;;;;;;;3.72;2.75;;;;;;;;;;8166548;28;20777;-71
2022/04/21 01:53:12;;;;;;;7.75;2.90;;;;;;;;;;8166000;28;20037;-71
2022/04/21 01:57:12;;;;;;;4.03;2.58;;;;;;;;;;8163635;28;20114;-71
2022/04/21 02:01:12;;;;;;;4.70;2.60;;;;;;;;;;8164205;28;20028;-70
2022/04/21 02:05:12;;;;;;;2.90;2.60;;;;;;;;;;8165593;28;20023;-71
2022/04/21 02:09:14;;;;;;;3.15;2.58;;;;;;;;;;8165935;28;20465;-71
2022/04/21 02:13:14;;;;;;;5.63;2.80;;;;;;;;;;8161397;28;20725;-70
2022/04/21 02:17:14;;;;;;;3.55;2.65;;;;;;;;;;8162351;28;20130;-71
2022/04/21 02:21:14;;;;;;;2.60;2.40;;;;;;;;;;8164458;28;20149;-71
2022/04/21 02:25:16;;;;;;;5.35;2.63;;;;;;;;;;8163968;28;20134;-70
2022/04/21 02:29:16;;;;;;;3.60;3.03;;;;;;;;;;8163720;28;20026;-70
2022/04/21 02:33:16;;;;;;;4.20;2.78;;;;;;;;;;8164073;28;20038;-71
2022/04/21 02:37:17;;;;;;;3.73;2.47;;;;;;;;;;8161860;28;20158;-71
2022/04/21 02:41:17;;;;;;;3.33;2.50;;;;;;;;;;8164859;28;20274;-71
2022/04/21 02:45:17;;;;;;;3.45;2.60;;;;;;;;;;8164148;28;20031;-71
2022/04/21 02:49:18;;;;;;;2.42;2.22;;;;;;;;;;8165865;28;20126;-71
2022/04/21 02:57:19;;;;;;;3.92;2.60;;;;;;;;;;8165828;28;20037;-71
2022/04/21 02:57:40;;;;;;;3.38;2.70;;;;;;;;;;8167107;28;20055;-71
2022/04/21 03:01:40;;;;;;;3.35;2.90;;;;;;;;;;8163795;28;20043;-71
2022/04/21 03:05:40;;;;;;;2.97;2.63;;;;;;;;;;8163178;28;20039;-71
2022/04/21 03:09:40;;;;;;;4.75;2.67;;;;;;;;;;8162992;28;20357;-71
2022/04/21 03:13:40;;;;;;;4.72;2.75;;;;;;;;;;8162148;28;20038;-71
2022/04/21 03:17:41;;;;;;;4.47;2.92;;;;;;;;;;8162337;28;20039;-71
2022/04/21 03:26:00;;;;;;;6.15;3.10;;;;;;;;;;8163097;28;20266;-70
2022/04/21 03:30:00;;;;;;;4.75;3.10;;;;;;;;;;8162460;28;20031;-71
2022/04/21 03:34:02;;;;;;;3.78;3.25;;;;;;;;;;8162847;28;20416;-71
2022/04/21 03:38:02;;;;;;;3.42;2.90;;;;;;;;;;8164342;28;20030;-71
2022/04/21 03:42:06;;;;;;;4.30;3.23;;;;;;;;;;8162549;28;20138;-71
2022/04/21 03:46:06;;;;;;;5.73;2.87;;;;;;;;;;8161056;28;20636;-71
2022/04/21 03:50:06;;;;;;;3.35;3.05;;;;;;;;;;8161692;28;20138;-71
2022/04/21 03:54:07;;;;;;;7.47;3.25;;;;;;;;;;8159981;28;20332;-71
2022/04/21 03:58:07;;;;;;;4.22;3.20;;;;;;;;;;8160913;28;20031;-71
2022/04/21 04:02:07;;;;;;;6.20;3.40;;;;;;;;;;8164219;28;20134;-71
2022/04/21 04:10:51;;;;;;;3.80;3.33;;;;;;;;;;8164213;28;20041;-71
2022/04/21 04:14:48;;;;;;;3.53;2.80;;;;;;;;;;8165585;28;20085;-70
2022/04/21 04:18:48;;;;;;;5.68;3.25;;;;;;;;;;8160852;28;20682;-70
2022/04/21 04:22:48;;;;;;;4.07;3.30;;;;;;;;;;8159160;28;20028;-70
2022/04/21 04:26:48;;;;;;;4.88;2.92;;;;;;;;;;8176096;28;20027;-70
2022/04/21 04:30:48;;;;;;;3.92;3.28;;;;;;;;;;8161582;28;20043;-70
2022/04/21 04:34:49;;;;;;;4.25;3.05;;;;;;;;;;8161574;28;20070;-70
2022/04/21 04:38:49;;;;;;;3.30;2.97;;;;;;;;;;8161646;28;20779;-70
2022/04/21 04:42:49;;;;;;;4.88;3.22;;;;;;;;;;8161355;28;20122;-71
2022/04/21 04:46:50;;;;;;;4.90;3.03;;;;;;;;;;8165031;28;20043;-70
2022/04/21 04:50:50;;;;;;;3.88;2.53;;;;;;;;;;8169796;28;20537;-71
2022/04/21 04:54:50;;;;;;;4.55;2.83;;;;;;;;;;8171161;28;20051;-70
2022/04/21 04:58:51;;;;;;;4.32;2.97;;;;;;;;;;8162856;28;20129;-71
2022/04/21 05:02:52;;;;;;;5.70;3.65;;;;;;;;;;8164750;28;20094;-71
2022/04/21 05:06:53;;;;;;;3.63;3.22;;;;;;;;;;8168602;28;20039;-70
2022/04/21 05:10:53;;;;;;;4.57;3.25;;;;;;;;;;8170113;28;20028;-70
2022/04/21 05:14:53;;;;;;;6.63;3.10;;;;;;;;;;8168822;28;20139;-70
2022/04/21 05:18:53;;;;;;;4.35;3.25;;;;;;;;;;8164799;28;20086;-70
2022/04/21 05:23:13;;;;;;;4.05;3.42;;;;;;;;;;8165915;28;20110;-70
2022/04/21 05:27:13;;;;;;;3.28;2.97;;;;;;;;;;8165188;28;20023;-69
2022/04/21 05:31:15;;;;;;;4.07;3.00;;;;;;;;;;8166364;28;20074;-70
2022/04/21 05:35:16;;;;;;;3.88;3.25;;;;;;;;;;8165116;28;20038;-69
2022/04/21 05:39:16;;;;;;;4.40;3.45;;;;;;;;;;8167801;28;20023;-70
2022/04/21 05:43:20;;;;;;;4.00;3.38;;;;;;;;;;8164789;28;20222;-70
2022/04/21 05:47:21;;;;;;;6.40;3.53;;;;;;;;;;8165764;28;20064;-70
2022/04/21 05:51:21;;;;;;;9.07;3.58;;;;;;;;;;8166071;28;20564;-70
2022/04/21 05:55:21;;;;;;;4.33;3.33;;;;;;;;;;8166769;28;20038;-70
2022/04/21 05:59:22;;;;;;;5.68;3.63;;;;;;;;;;8165522;28;20306;-70
2022/04/21 06:03:22;;;;;;;4.30;3.33;;;;;;;;;;8163877;28;20086;-70
2022/04/21 06:07:22;;;;;;;7.00;3.70;;;;;;;;;;8165467;28;20444;-70
2022/04/21 06:11:24;;;;;;;5.15;3.33;;;;;;;;;;8165303;28;20099;-70
2022/04/21 06:15:24;;;;;;;6.45;4.05;;;;;;;;;;8179205;28;20715;-70
2022/04/21 06:19:24;;;;;;;4.03;3.20;;;;;;;;;;8165992;28;20023;-70
2022/04/21 06:23:25;;;;;;;4.13;3.72;;;;;;;;;;8168238;28;20026;-70
2022/04/21 06:27:25;;;;;;;5.45;3.88;;;;;;;;;;8168108;28;20150;-70
2022/04/21 06:31:25;;;;;;;5.57;3.92;;;;;;;;;;8165494;28;20036;-70
2022/04/21 06:35:29;;;;;;;10.80;3.42;;;;;;;;;;8162975;28;20054;-70
2022/04/21 06:39:29;;;;;;;6.00;4.10;;;;;;;;;;8162462;28;20024;-70
2022/04/21 06:48:03;;;;;;;6.38;3.75;;;;;;;;;;8162429;28;20110;-70
2022/04/21 06:52:04;;;;;;;5.88;3.72;;;;;;;;;;8163394;28;20087;-69
2022/04/21 06:56:05;;;;;;;6.93;3.90;;;;;;;;;;8164854;28;20023;-69
2022/04/21 07:00:05;;;;;;;8.02;4.03;;;;;;;;;;8177861;28;20534;-70
2022/04/21 07:04:05;;;;;;;7.60;4.00;;;;;;;;;;8164394;28;20030;-71
2022/04/21 07:08:07;;;;;;;5.25;4.13;;;;;;;;;;8164161;28;20031;-71
2022/04/21 07:12:08;;;;;;;5.22;3.88;;;;;;;;;;8161477;28;20015;-71
2022/04/21 07:16:08;;;;;;;3.65;3.22;;;;;;;;;;8171257;28;20242;-71
2022/04/21 07:20:09;;;;;;;10.38;3.83;;;;;;;;;;8166439;28;20108;-71
2022/04/21 07:24:10;;;;;;;3.88;3.47;;;;;;;;;;8164612;28;20079;-71
2022/04/21 07:28:10;;;;;;;4.75;3.58;;;;;;;;;;8161465;28;20480;-71
2022/04/21 07:32:11;;;;;;;3.72;3.28;;;;;;;;;;8160138;28;20041;-71
2022/04/21 07:36:11;;;;;;;6.05;3.40;;;;;;;;;;8163108;28;20474;-72
2022/04/21 07:40:11;;;;;;;6.28;3.80;;;;;;;;;;8158851;28;20125;-71
2022/04/21 07:44:11;;;;;;;6.95;4.10;;;;;;;;;;8161653;28;20371;-71
2022/04/21 07:48:11;;;;;;;4.45;3.65;;;;;;;;;;8159306;28;20348;-71
2022/04/21 07:56:50;;;;;;;4.45;3.83;;;;;;;;;;8160517;28;20084;-70
2022/04/21 08:00:51;;;;;;;5.85;3.67;;;;;;;;;;8161368;28;20040;-70
2022/04/21 08:04:51;;;;;;;5.18;3.50;;;;;;;;;;8159948;28;20031;-70
2022/04/21 08:08:51;;;;;;;6.93;4.07;;;;;;;;;;8159851;28;20055;-70
2022/04/21 08:12:51;;;;;;;5.85;3.70;;;;;;;;;;8160716;28;20539;-71
2022/04/21 08:16:54;;;;;;;4.63;3.38;;;;;;;;;;8161044;28;20043;-70
2022/04/21 08:20:58;;;;;;;4.00;3.40;;;;;;;;;;8163265;28;20082;-70
2022/04/21 08:33:36;;;;;;;5.43;3.58;;;;;;;;;;8159921;28;20157;-70
2022/04/21 08:37:36;;;;;;;3.58;3.13;;;;;;;;;;8160014;28;20740;-70
2022/04/21 08:41:41;;;;;;;5.05;3.25;;;;;;;;;;8158239;28;20031;-70
2022/04/21 08:45:42;;;;;;;9.73;3.80;;;;;;;;;;8159960;28;20067;-71
2022/04/21 08:49:43;;;;;;;4.70;3.53;;;;;;;;;;8161540;28;20106;-71
2022/04/21 08:53:44;;;;;;;3.80;3.20;;;;;;;;;;8163861;28;20376;-70
2022/04/21 08:57:44;;;;;;;8.00;4.13;;;;;;;;;;8163819;28;20074;-71
2022/04/21 09:01:44;;;;;;;6.67;3.13;;;;;;;;;;8159182;28;20130;-71
2022/04/21 09:05:44;;;;;;;5.30;3.25;;;;;;;;;;8158482;28;20027;-71
2022/04/21 09:10:05;;;;;;;6.00;3.40;;;;;;;;;;8160358;28;20699;-71
2022/04/21 09:14:05;;;;;;;5.43;3.28;;;;;;;;;;8160335;28;20023;-71
2022/04/21 09:18:10;;;;;;;4.07;3.50;;;;;;;;;;8159838;28;20663;-71
2022/04/21 09:22:10;;;;;;;8.43;3.10;;;;;;;;;;8173640;28;20038;-71
2022/04/21 09:26:14;;;;;;;11.18;5.00;;;;;;;;;;8160294;28;20469;-70
2022/04/21 09:30:15;;;;;;;6.85;4.22;;;;;;;;;;8160763;28;20370;-71
2022/04/21 09:34:15;;;;;;;5.43;3.70;;;;;;;;;;8158958;28;20027;-71
2022/04/21 09:38:18;;;;;;;3.75;3.42;;;;;;;;;;8158778;28;20266;-70
2022/04/21 09:42:25;;;;;;;5.15;3.47;;;;;;;;;;8159357;28;20023;-71
2022/04/21 09:46:25;;;;;;;30.60;8.57;;;;;;;;;;8160629;28;20158;-70
2022/04/21 09:50:26;;;;;;;6.07;4.10;;;;;;;;;;8160647;28;20058;-70
2022/04/21 09:54:29;;;;;;;4.50;3.63;;;;;;;;;;8169242;28;20619;-70
2022/04/21 09:58:35;;;;;;;10.32;3.72;;;;;;;;;;8165801;28;20289;-71
2022/04/21 10:02:37;;;;;;;5.10;3.53;;;;;;;;;;8166292;28;20082;-70
2022/04/21 10:06:38;;;;;;;8.23;3.60;;;;;;;;;;8166346;28;20779;-70
2022/04/21 10:10:39;;;;;;;6.55;3.10;;;;;;;;;;8165425;28;20031;-70
2022/04/21 10:14:39;;;;;;;5.95;3.45;;;;;;;;;;8167248;28;20598;-70
2022/04/21 10:18:39;;;;;;;4.20;2.95;;;;;;;;;;8163887;28;20039;-71
2022/04/21 10:22:39;;;;;;;4.97;3.35;;;;;;;;;;8165030;28;20031;-70
2022/04/21 10:26:41;;;;;;;3.87;2.73;;;;;;;;;;8165387;28;20042;-71
2022/04/21 10:30:42;;;;;;;4.50;2.78;;;;;;;;;;8178607;28;20051;-70
2022/04/21 10:34:45;;;;;;;4.25;3.25;;;;;;;;;;8164467;28;20102;-71
2022/04/21 10:39:05;;;;;;;4.18;3.00;;;;;;;;;;8166470;28;20027;-70
2022/04/21 10:43:05;;;;;;;7.50;2.78;;;;;;;;;;8166281;28;20094;-70
2022/04/21 10:47:24;;;;;;;4.20;2.85;;;;;;;;;;8165220;28;20039;-70
2022/04/21 10:57:12;;;;;;;5.95;2.47;;;;;;;;;;8164220;28;20057;-71
2022/04/21 11:00:39;;;;;;;;;;;;;;;;;;8162862;28;20094;-71
2022/04/21 11:04:39;;;;;;;3.95;2.92;;;;;;;;;;8164443;28;19914;-71
2022/04/21 11:08:41;;;;;;;6.13;3.47;;;;;;;;;;8165672;28;20924;-71
2022/04/21 11:12:43;;;;;;;7.40;2.90;;;;;;;;;;8162800;28;20365;-71
2022/04/21 11:16:45;;;;;;;4.20;3.38;;;;;;;;;;8177209;28;20599;-72
2022/04/21 11:20:47;;;;;;;5.45;2.85;;;;;;;;;;8162646;28;20039;-71
2022/04/21 11:25:01;;;;;;;4.47;2.92;;;;;;;;;;8163619;28;20461;-71
2022/04/21 11:29:02;;;;;;;4.65;3.00;;;;;;;;;;8163957;28;20022;-71
2022/04/21 11:33:08;;;;;;;3.78;3.30;;;;;;;;;;8161336;28;20035;-71
2022/04/21 11:37:08;;;;;;;3.63;3.03;;;;;;;;;;8175157;28;20790;-72
2022/04/21 11:41:09;;;;;;;4.97;2.90;;;;;;;;;;8162522;28;20062;-72
2022/04/21 11:45:10;;;;;;;3.20;2.78;;;;;;;;;;8162248;28;20038;-72
2022/04/21 11:49:10;;;;;;;3.30;2.55;;;;;;;;;;8162637;28;20035;-72
2022/04/21 11:53:11;;;;;;;7.03;2.97;;;;;;;;;;8162753;28;20039;-71
2022/04/21 11:57:11;;;;;;;5.43;2.97;;;;;;;;;;8162450;28;20147;-72
2022/04/21 12:09:51;;;;;;;2.88;2.40;;;;;;;;;;8163522;28;20672;-72
2022/04/21 12:13:51;;;;;;;3.83;2.50;;;;;;;;;;8161971;28;20016;-72
2022/04/21 12:17:51;;;;;;;5.50;2.67;;;;;;;;;;8159485;28;20285;-72
2022/04/21 12:22:07;;;;;;;4.63;2.65;;;;;;;;;;8160076;28;20023;-72
2022/04/21 12:26:07;;;;;;;4.95;2.90;;;;;;;;;;8162299;28;20043;-72
2022/04/21 12:30:09;;;;;;;2.83;2.50;;;;;;;;;;8160791;28;20609;-72
2022/04/21 12:34:19;;;;;;;3.38;2.60;;;;;;;;;;8161392;28;20054;-72
2022/04/21 12:42:41;;;;;;;5.40;2.80;;;;;;;;;;8159409;28;20042;-72
2022/04/21 12:46:41;;;;;;;3.67;2.63;;;;;;;;;;8155757;28;20445;-72
2022/04/21 12:50:42;;;;;;;3.20;2.88;;;;;;;;;;8156251;28;20105;-72
2022/04/21 12:54:47;;;;;;;5.60;3.10;;;;;;;;;;8159450;28;20111;-72
2022/04/21 12:58:56;;;;;;;5.07;2.72;;;;;;;;;;8158233;28;20493;-72
2022/04/21 13:02:56;;;;;;;4.50;3.15;;;;;;;;;;8158716;28;20050;-72
2022/04/21 13:06:57;;;;;;;3.47;2.60;;;;;;;;;;8163022;28;20034;-72
2022/04/21 13:10:57;;;;;;;6.05;2.55;;;;;;;;;;8158798;28;20035;-71
2022/04/21 13:14:58;;;;;;;4.00;2.38;;;;;;;;;;8162701;28;20890;-72
2022/04/21 13:18:59;;;;;;;3.97;2.50;;;;;;;;;;8156028;28;20051;-71
2022/04/21 13:22:59;;;;;;;6.28;2.33;;;;;;;;;;8156456;28;20071;-72
2022/04/21 13:26:59;;;;;;;4.13;2.15;;;;;;;;;;8158958;28;20841;-72
2022/04/21 13:35:18;;;;;;;2.05;1.80;;;;;;;;;;8164111;28;20081;-72
2022/04/21 13:39:19;;;;;;;5.53;1.90;;;;;;;;;;8164644;28;20134;-72
2022/04/21 13:43:19;;;;;;;3.53;2.10;;;;;;;;;;8161867;28;20343;-72
2022/04/21 13:47:19;;;;;;;4.97;2.20;;;;;;;;;;8163556;28;20048;-71
2022/04/21 13:51:19;;;;;;;4.93;2.60;;;;;;;;;;8166611;28;20027;-72
2022/04/21 13:55:20;;;;;;;2.75;2.55;;;;;;;;;;8164969;28;20028;-72
2022/04/21 13:59:21;;;;;;;4.75;2.20;;;;;;;;;;8166470;28;20033;-71
2022/04/21 14:03:21;;;;;;;2.30;1.92;;;;;;;;;;8164045;28;20288;-72
2022/04/21 14:07:21;;;;;;;5.15;1.83;;;;;;;;;;8163446;28;20038;-72
2022/04/21 14:11:24;;;;;;;4.35;1.80;;;;;;;;;;8162980;28;20451;-72
2022/04/21 14:15:24;;;;;;;2.15;1.60;;;;;;;;;;8163990;28;20031;-73
2022/04/21 14:19:25;;;;;;;1.95;1.70;;;;;;;;;;8159484;28;20079;-73
2022/04/21 14:23:25;;;;;;;4.00;1.50;;;;;;;;;;8162740;28;20027;-73
2022/04/21 14:27:26;;;;;;;3.45;1.50;;;;;;;;;;8162756;28;20758;-73
2022/04/21 14:31:26;;;;;;;2.13;1.73;;;;;;;;;;8161399;28;20532;-72
2022/04/21 14:35:26;;;;;;;3.95;1.90;;;;;;;;;;8163882;28;20031;-72
2022/04/21 14:44:04;;;;;;;3.72;1.85;;;;;;;;;;8165807;28;20038;-73
2022/04/21 14:48:04;;;;;;;4.47;2.20;;;;;;;;;;8167590;28;20700;-72
2022/04/21 14:52:08;;;;;;;4.85;1.95;;;;;;;;;;8166776;28;20030;-73
2022/04/21 14:56:08;;;;;;;3.60;1.98;;;;;;;;;;8162939;28;20023;-72
2022/04/21 15:00:09;;;;;;;4.60;2.00;;;;;;;;;;8166042;28;21060;-73
2022/04/21 15:04:09;;;;;;;3.45;1.92;;;;;;;;;;8163753;28;20035;-73
2022/04/21 15:08:09;;;;;;;5.30;2.03;;;;;;;;;;8165126;28;20019;-73
2022/04/21 15:12:09;;;;;;;2.28;1.85;;;;;;;;;;8161627;28;20708;-73
2022/04/21 15:16:10;;;;;;;4.05;2.20;;;;;;;;;;8163894;28;20110;-73
2022/04/21 15:20:10;;;;;;;6.82;2.00;;;;;;;;;;8162510;28;20026;-73
2022/04/21 15:24:11;;;;;;;3.00;2.03;;;;;;;;;;8162720;28;20033;-72
2022/04/21 15:28:12;;;;;;;2.65;1.90;;;;;;;;;;8164139;28;20027;-73
2022/04/21 15:32:12;;;;;;;2.45;1.80;;;;;;;;;;8161416;28;20035;-73
2022/04/21 15:36:13;;;;;;;4.32;1.80;;;;;;;;;;8163216;28;20074;-73
2022/04/21 15:40:13;;;;;;;4.03;1.60;;;;;;;;;;8163285;28;20026;-73
2022/04/21 15:44:13;;;;;;;2.17;1.70;;;;;;;;;;8163703;28;20821;-73
2022/04/21 15:48:15;;;;;;;7.40;1.70;;;;;;;;;;8162738;28;20062;-73
2022/04/21 15:52:15;;;;;;;3.42;1.92;;;;;;;;;;8164575;28;20027;-73
2022/04/21 16:00:34;;;;;;;3.50;1.77;;;;;;;;;;8163504;28;20110;-73
2022/04/21 16:04:35;;;;;;;2.28;1.60;;;;;;;;;;8163739;28;20382;-73
2022/04/21 16:08:35;;;;;;;2.83;2.00;;;;;;;;;;8162333;28;20063;-73
2022/04/21 16:12:36;;;;;;;5.10;1.70;;;;;;;;;;8162503;28;20038;-73
2022/04/21 16:16:36;;;;;;;2.42;1.75;;;;;;;;;;8164159;28;20041;-73
2022/04/21 16:20:36;;;;;;;2.45;1.70;;;;;;;;;;8163317;28;21021;-73
2022/04/21 16:24:37;;;;;;;2.58;1.90;;;;;;;;;;8161396;28;20034;-73
2022/04/21 16:28:37;;;;;;;3.00;1.70;;;;;;;;;;8161221;28;20113;-72
2022/04/21 16:32:37;;;;;;;3.00;1.47;;;;;;;;;;8161572;28;20035;-73
2022/04/21 16:36:40;;;;;;;4.60;1.70;;;;;;;;;;8167351;28;20039;-73
2022/04/21 16:40:41;;;;;;;1.73;1.50;;;;;;;;;;8163731;28;20038;-73
2022/04/21 16:44:41;;;;;;;1.45;1.35;;;;;;;;;;8163847;28;20027;-73
2022/04/21 16:48:41;;;;;;;3.58;1.30;;;;;;;;;;8161750;28;20076;-73
2022/04/21 16:52:42;;;;;;;1.42;1.33;;;;;;;;;;8160457;28;20039;-73
2022/04/21 16:56:42;;;;;;;3.10;1.38;;;;;;;;;;8162145;28;20797;-73
2022/04/21 17:05:02;;;;;;;1.08;1.05;;;;;;;;;;8169123;28;20030;-73
2022/04/21 17:09:03;;;;;;;5.32;1.40;;;;;;;;;;8167486;28;20709;-73
2022/04/21 17:13:03;;;;;;;1.48;1.27;;;;;;;;;;8167659;28;20344;-73
2022/04/21 17:17:04;;;;;;;2.88;1.33;;;;;;;;;;8168631;28;20043;-73
2022/04/21 17:21:04;;;;;;;2.28;1.48;;;;;;;;;;8166769;28;20033;-73
2022/04/21 17:25:04;;;;;;;1.83;1.50;;;;;;;;;;8169292;28;20065;-73
2022/04/21 17:29:05;;;;;;;1.60;1.30;;;;;;;;;;8166760;28;20370;-73
2022/04/21 17:33:05;;;;;;;1.63;1.33;;;;;;;;;;8168075;28;20550;-73
2022/04/21 17:37:05;;;;;;;1.43;1.33;;;;;;;;;;8166609;28;20027;-72
2022/04/21 17:41:05;;;;;;;1.38;1.20;;;;;;;;;;8167233;28;20058;-73
2022/04/21 17:45:06;;;;;;;1.85;1.30;;;;;;;;;;8167027;28;20154;-73
2022/04/21 17:49:06;;;;;;;1.92;1.05;;;;;;;;;;8164995;28;20042;-73
2022/04/21 17:53:06;;;;;;;2.08;1.50;;;;;;;;;;8166356;28;20547;-73
2022/04/21 17:57:06;;;;;;;2.57;1.53;;;;;;;;;;8167404;28;20011;-72
2022/04/21 18:01:07;;;;;;;1.63;1.48;;;;;;;;;;8166326;28;20142;-73
2022/04/21 18:05:08;;;;;;;3.50;1.70;;;;;;;;;;8180400;28;20027;-73
2022/04/21 18:09:08;;;;;;;2.10;1.70;;;;;;;;;;8164746;28;20031;-73
2022/04/21 18:13:08;;;;;;;3.13;1.58;;;;;;;;;;8164100;28;20032;-73
2022/04/21 18:17:08;;;;;;;1.98;1.63;;;;;;;;;;8168907;28;20030;-73
2022/04/21 18:21:09;;;;;;;5.15;1.60;;;;;;;;;;8167648;28;20145;-72
2022/04/21 18:25:09;;;;;;;1.88;1.77;;;;;;;;;;8168130;28;20524;-73
2022/04/21 18:29:09;;;;;;;4.53;1.80;;;;;;;;;;8167705;28;20759;-73
2022/04/21 18:33:09;;;;;;;5.05;1.80;;;;;;;;;;8164597;28;20035;-73
2022/04/21 18:37:10;;;;;;;4.07;1.90;;;;;;;;;;8167042;28;20020;-73
2022/04/21 18:41:11;;;;;;;4.70;2.00;;;;;;;;;;8164317;28;20086;-72
2022/04/21 18:45:11;;;;;;;4.45;1.98;;;;;;;;;;8164297;28;20038;-72
2022/04/21 18:49:11;;;;;;;2.47;1.90;;;;;;;;;;8166070;28;20358;-72
2022/04/21 18:53:12;;;;;;;3.03;1.98;;;;;;;;;;8161771;28;20023;-72
2022/04/21 18:57:12;;;;;;;5.72;2.30;;;;;;;;;;8165033;28;20019;-72
2022/04/21 19:01:12;;;;;;;3.63;2.00;;;;;;;;;;8162353;28;20035;-72
2022/04/21 19:05:15;;;;;;;3.38;2.20;;;;;;;;;;8179423;28;20141;-72
2022/04/21 19:13:35;;;;;;;3.20;2.30;;;;;;;;;;8163776;28;20111;-72
2022/04/21 19:17:35;;;;;;;2.58;2.10;;;;;;;;;;8162819;28;20047;-72
2022/04/21 19:21:36;;;;;;;2.92;2.30;;;;;;;;;;8161631;28;20107;-72
2022/04/21 19:25:37;;;;;;;2.08;1.88;;;;;;;;;;8164333;28;20492;-73
2022/04/21 19:29:48;;;;;;;4.07;2.03;;;;;;;;;;8164409;28;20042;-73
2022/04/21 19:33:49;;;;;;;2.53;1.90;;;;;;;;;;8161594;28;20035;-72
2022/04/21 19:37:50;;;;;;;2.28;1.73;;;;;;;;;;8160332;28;20030;-73
2022/04/21 19:41:51;;;;;;;6.30;1.90;;;;;;;;;;8162222;28;20361;-73
2022/04/21 19:45:51;;;;;;;1.90;1.80;;;;;;;;;;8163326;28;20977;-72
2022/04/21 19:49:51;;;;;;;3.05;1.98;;;;;;;;;;8161288;28;20035;-73
2022/04/21 19:53:52;;;;;;;1.85;1.73;;;;;;;;;;8163085;28;20037;-72
2022/04/21 19:57:52;;;;;;;2.10;1.90;;;;;;;;;;8162824;28;20890;-72
2022/04/21 20:01:52;;;;;;;4.00;2.08;;;;;;;;;;8162746;28;20126;-72
2022/04/21 20:10:12;;;;;;;2.28;2.08;;;;;;;;;;8163019;28;20030;-72
2022/04/21 20:14:13;;;;;;;5.35;1.90;;;;;;;;;;8145013;28;20055;-72
2022/04/21 20:18:13;;;;;;;3.55;2.47;;;;;;;;;;8164526;28;20377;-72
2022/04/21 20:22:14;;;;;;;2.25;2.00;;;;;;;;;;8162099;28;20034;-72
2022/04/21 20:30:32;;;;;;;4.50;2.38;;;;;;;;;;8161326;28;20497;-72
2022/04/21 20:34:33;;;;;;;3.03;2.55;;;;;;;;;;8160534;28;20137;-72
2022/04/21 20:38:39;;;;;;;4.10;2.70;;;;;;;;;;8162260;28;20023;-72
2022/04/21 20:42:39;;;;;;;4.20;2.67;;;;;;;;;;8160224;28;20405;-72
2022/04/21 20:46:39;;;;;;;3.50;2.90;;;;;;;;;;8159345;28;20061;-71
2022/04/21 20:50:40;;;;;;;4.40;3.17;;;;;;;;;;8159369;28;20333;-72
2022/04/21 20:54:41;;;;;;;5.10;3.22;;;;;;;;;;8159553;28;20026;-72
2022/04/21 20:58:41;;;;;;;3.35;3.05;;;;;;;;;;8172976;28;20035;-72
2022/04/21 21:02:41;;;;;;;3.42;2.80;;;;;;;;;;8157511;28;20046;-72
2022/04/21 21:11:00;;;;;;;4.70;3.20;;;;;;;;;;8157552;28;20042;-72
2022/04/21 21:15:01;;;;;;;4.32;3.45;;;;;;;;;;8159960;28;20023;-72
2022/04/21 21:19:01;;;;;;;5.07;2.90;;;;;;;;;;8161513;28;20145;-71
2022/04/21 21:23:01;;;;;;;4.45;3.30;;;;;;;;;;8161287;28;20142;-71
2022/04/21 21:27:01;;;;;;;4.57;3.72;;;;;;;;;;8162526;28;20032;-72
2022/04/21 21:31:01;;;;;;;3.45;3.15;;;;;;;;;;8160044;28;20359;-71
2022/04/21 21:35:02;;;;;;;3.85;3.17;;;;;;;;;;8159405;28;20024;-72
2022/04/21 21:39:02;;;;;;;3.88;3.20;;;;;;;;;;8159159;28;20078;-71
2022/04/21 21:43:03;;;;;;;5.85;3.35;;;;;;;;;;8158753;28;20055;-71
2022/04/21 21:47:03;;;;;;;5.63;3.63;;;;;;;;;;8157741;28;20050;-72
2022/04/21 21:55:23;;;;;;;4.90;3.40;;;;;;;;;;8165810;28;20277;-71
2022/04/21 21:59:23;;;;;;;6.30;3.35;;;;;;;;;;8165118;28;20027;-71
2022/04/21 22:03:23;;;;;;;6.95;3.55;;;;;;;;;;8164770;28;20035;-72
2022/04/21 22:07:24;;;;;;;6.22;3.58;;;;;;;;;;8169443;28;20023;-72
2022/04/21 22:11:24;;;;;;;4.78;3.50;;;;;;;;;;8166730;28;20040;-72
2022/04/21 22:15:24;;;;;;;4.45;3.90;;;;;;;;;;8168936;28;20035;-72
2022/04/21 22:19:26;;;;;;;5.25;3.45;;;;;;;;;;8164055;28;20157;-71
2022/04/21 22:23:26;;;;;;;5.28;3.53;;;;;;;;;;8163061;28;20026;-72
2022/04/21 22:27:27;;;;;;;4.50;3.40;;;;;;;;;;8165226;28;20019;-72
2022/04/21 22:31:27;;;;;;;4.22;3.67;;;;;;;;;;8164955;28;20287;-72
2022/04/21 22:35:28;;;;;;;6.35;3.70;;;;;;;;;;8166214;28;20452;-72
2022/04/21 22:39:28;;;;;;;5.43;3.70;;;;;;;;;;8168360;28;20169;-72
2022/04/21 22:43:29;;;;;;;5.75;3.85;;;;;;;;;;8167028;28;20034;-72
2022/04/21 22:47:29;;;;;;;4.63;3.67;;;;;;;;;;8171619;28;20061;-72
2022/04/21 22:51:30;;;;;;;3.63;3.22;;;;;;;;;;8163745;28;20060;-71
2022/04/21 22:55:33;;;;;;;5.50;3.85;;;;;;;;;;8163569;28;20612;-72
2022/04/21 22:59:33;;;;;;;5.38;3.95;;;;;;;;;;8165247;28;20486;-72
2022/04/21 23:03:33;;;;;;;4.30;3.75;;;;;;;;;;8165139;28;20042;-72
2022/04/21 23:07:34;;;;;;;9.68;4.20;;;;;;;;;;8163023;28;20602;-71
2022/04/21 23:15:53;;;;;;;7.68;4.57;;;;;;;;;;8166401;28;20070;-71
2022/04/21 23:19:53;;;;;;;5.32;4.63;;;;;;;;;;8179116;28;20672;-72
2022/04/21 23:23:55;;;;;;;7.32;4.40;;;;;;;;;;8162833;28;20026;-72
2022/04/21 23:27:55;;;;;;;6.95;4.93;;;;;;;;;;8160602;28;20035;-71
2022/04/21 23:31:56;;;;;;;6.18;4.80;;;;;;;;;;8162526;28;20043;-72
2022/04/21 23:35:56;;;;;;;5.30;4.32;;;;;;;;;;8164114;28;20117;-71
2022/04/21 23:39:56;;;;;;;6.23;4.73;;;;;;;;;;8163310;28;20039;-71
2022/04/21 23:43:56;;;;;;;7.72;5.13;;;;;;;;;;8161925;28;20034;-72
2022/04/21 23:47:56;;;;;;;6.45;5.30;;;;;;;;;;8163185;28;20035;-72
2022/04/21 23:51:56;;;;;;;8.75;4.97;;;;;;;;;;8161127;28;20034;-72
2022/04/21 23:55:57;;;;;;;6.32;5.57;;;;;;;;;;8162854;28;20035;-72
2022/04/21 23:59:57;;;;;;;6.47;5.63;;;;;;;;;;8178101;28;20039;-71
